createdAt,value
2018-09-28T00:02:19.264Z,45.82
2018-09-28T00:04:48.556Z,46.33
2018-09-28T00:07:17.780Z,45.10
2018-09-28T00:09:47.131Z,46.52
2018-09-28T00:12:16.268Z,46.48
2018-09-28T00:14:45.192Z,46.39
2018-09-28T00:17:14.649Z,47.42
2018-09-28T00:19:43.765Z,46.81
2018-09-28T00:22:13.016Z,46.34
2018-09-28T00:24:42.460Z,46.81
2018-09-28T00:27:11.716Z,48.62
2018-09-28T00:29:40.859Z,45.31
2018-09-28T00:32:10.107Z,47.84
2018-09-28T00:34:39.445Z,48.39
2018-09-28T00:37:08.685Z,46.70
2018-09-28T00:39:37.903Z,46.67
2018-09-28T00:42:07.094Z,48.95
2018-09-28T00:44:36.411Z,46.35
2018-09-28T00:47:05.434Z,45.73
2018-09-28T00:49:34.488Z,44.49
2018-09-28T00:52:03.531Z,45.40
2018-09-28T00:54:32.598Z,45.60
2018-09-28T00:57:01.767Z,47.73
2018-09-28T00:59:30.983Z,47.76
2018-09-28T01:02:00.219Z,47.77
2018-09-28T01:04:29.455Z,47.28
2018-09-28T01:06:58.396Z,46.76
2018-09-28T01:09:27.387Z,47.86
2018-09-28T01:11:56.786Z,46.80
2018-09-28T01:14:25.930Z,45.43
2018-09-28T01:16:55.187Z,45.75
2018-09-28T01:19:24.630Z,46.94
2018-09-28T01:21:53.741Z,45.65
2018-09-28T01:24:22.979Z,48.32
2018-09-28T01:26:51.859Z,47.82
2018-09-28T01:29:20.992Z,49.14
2018-09-28T01:31:50.198Z,47.77
2018-09-28T01:34:19.459Z,48.58
2018-09-28T01:36:48.611Z,47.45
2018-09-28T01:39:17.856Z,48.70
2018-09-28T01:41:47.081Z,48.57
2018-09-28T01:44:16.298Z,46.53
2018-09-28T01:46:45.480Z,49.45
2018-09-28T01:49:14.907Z,48.10
2018-09-28T01:51:43.960Z,49.18
2018-09-28T01:54:13.286Z,50.57
2018-09-28T01:56:42.501Z,49.43
2018-09-28T01:59:11.692Z,50.07
2018-09-28T02:01:41.037Z,49.57
2018-09-28T02:04:10.268Z,50.34
2018-09-28T02:06:39.499Z,49.45
2018-09-28T02:09:08.930Z,47.36
2018-09-28T02:11:38.137Z,48.91
2018-09-28T02:14:07.386Z,48.32
2018-09-28T02:16:36.857Z,46.62
2018-09-28T02:19:06.348Z,48.35
2018-09-28T02:21:35.543Z,47.89
2018-09-28T02:24:04.568Z,48.07
2018-09-28T02:26:33.574Z,49.41
2018-09-28T02:29:02.830Z,46.69
2018-09-28T02:31:32.103Z,48.17
2018-09-28T02:34:01.296Z,46.46
2018-09-28T02:36:30.618Z,48.60
2018-09-28T02:38:59.962Z,47.51
2018-09-28T02:41:29.325Z,49.65
2018-09-28T02:43:58.260Z,49.20
2018-09-28T02:46:27.615Z,50.15
2018-09-28T02:48:56.819Z,48.02
2018-09-28T02:51:26.147Z,49.45
2018-09-28T02:53:55.360Z,49.95
2018-09-28T02:56:24.539Z,50.35
2018-09-28T02:58:53.911Z,48.67
2018-09-28T03:01:22.836Z,48.26
2018-09-28T03:03:51.911Z,47.39
2018-09-28T03:06:21.360Z,47.13
2018-09-28T03:08:50.469Z,47.69
2018-09-28T03:11:19.730Z,46.84
2018-09-28T03:13:49.036Z,47.16
2018-09-28T03:16:18.271Z,49.35
2018-09-28T03:18:47.158Z,48.09
2018-09-28T03:21:16.340Z,48.92
2018-09-28T03:23:45.499Z,50.59
2018-09-28T03:26:14.504Z,47.90
2018-09-28T03:28:43.660Z,48.33
2018-09-28T03:31:12.833Z,48.41
2018-09-28T03:33:41.752Z,48.66
2018-09-28T03:36:11.027Z,48.85
2018-09-28T03:38:40.139Z,49.93
2018-09-28T03:41:09.379Z,49.67
2018-09-28T03:43:38.779Z,48.49
2018-09-28T03:46:08.184Z,48.11
2018-09-28T03:48:37.153Z,48.61
2018-09-28T03:51:06.411Z,48.59
2018-09-28T03:53:35.416Z,48.51
2018-09-28T03:56:04.530Z,48.83
2018-09-28T03:58:33.854Z,49.18
2018-09-28T04:01:02.903Z,48.97
2018-09-28T04:03:32.192Z,50.61
2018-09-28T04:06:01.405Z,50.98
2018-09-28T04:08:30.796Z,50.76
2018-09-28T04:11:00.003Z,51.12
2018-09-28T04:13:29.030Z,51.43
2018-09-28T04:15:58.301Z,51.64
2018-09-28T04:18:27.502Z,51.37
2018-09-28T04:20:56.905Z,50.83
2018-09-28T04:23:26.086Z,53.03
2018-09-28T04:25:55.345Z,51.82
2018-09-28T04:28:24.783Z,51.92
2018-09-28T04:30:54.073Z,52.34
2018-09-28T04:33:23.161Z,52.52
2018-09-28T04:35:52.583Z,53.14
2018-09-28T04:38:21.901Z,52.28
2018-09-28T04:40:51.288Z,52.93
2018-09-28T04:43:20.486Z,53.45
2018-09-28T04:45:49.727Z,52.98
2018-09-28T04:48:18.736Z,53.46
2018-09-28T04:50:47.778Z,52.87
2018-09-28T04:53:17.051Z,50.32
2018-09-28T04:55:46.403Z,49.83
2018-09-28T04:58:15.680Z,50.00
2018-09-28T05:00:44.950Z,48.65
2018-09-28T05:03:13.983Z,50.42
2018-09-28T05:05:43.351Z,51.41
2018-09-28T05:08:12.634Z,50.30
2018-09-28T05:10:41.728Z,51.64
2018-09-28T05:13:11.203Z,50.60
2018-09-28T05:15:40.468Z,51.55
2018-09-28T05:18:09.604Z,50.27
2018-09-28T05:20:38.750Z,50.29
2018-09-28T05:23:08.068Z,50.39
2018-09-28T05:25:37.397Z,50.95
2018-09-28T05:28:06.695Z,50.77
2018-09-28T05:30:35.659Z,51.01
2018-09-28T05:33:05.102Z,50.79
2018-09-28T05:35:34.399Z,50.42
2018-09-28T05:38:03.771Z,50.50
2018-09-28T05:40:33.306Z,49.86
2018-09-28T05:43:02.528Z,49.52
2018-09-28T05:45:31.424Z,49.25
2018-09-28T05:48:00.715Z,49.34
2018-09-28T05:50:29.864Z,48.85
2018-09-28T05:52:59.285Z,48.28
2018-09-28T05:55:28.522Z,46.38
2018-09-28T05:58:02.799Z,46.98
2018-09-28T06:00:37.023Z,46.88
2018-09-28T06:03:12.931Z,47.56
2018-09-28T06:05:42.992Z,47.31
2018-09-28T06:08:12.542Z,46.70
2018-09-28T06:10:41.583Z,43.94
2018-09-28T06:13:10.700Z,44.31
2018-09-28T06:15:40.112Z,44.80
2018-09-28T06:18:09.233Z,45.50
2018-09-28T06:20:38.089Z,44.95
2018-09-28T06:23:07.310Z,45.09
2018-09-28T06:25:36.647Z,45.48
2018-09-28T06:28:06.251Z,45.66
2018-09-28T06:30:35.611Z,45.01
2018-09-28T06:33:04.809Z,44.85
2018-09-28T06:35:34.170Z,45.33
2018-09-28T06:38:03.455Z,44.85
2018-09-28T06:40:32.760Z,44.59
2018-09-28T06:43:01.811Z,44.63
2018-09-28T06:45:31.102Z,44.67
2018-09-28T06:48:00.385Z,44.87
2018-09-28T06:50:29.677Z,43.60
2018-09-28T06:52:58.948Z,44.96
2018-09-28T06:55:28.391Z,42.69
2018-09-28T06:57:57.559Z,43.28
2018-09-28T07:00:26.510Z,41.78
2018-09-28T07:02:55.708Z,41.56
2018-09-28T07:05:24.751Z,41.54
2018-09-28T07:07:53.979Z,39.75
2018-09-28T07:10:23.484Z,39.39
2018-09-28T07:12:52.830Z,40.43
2018-09-28T07:15:22.133Z,40.50
2018-09-28T07:17:51.437Z,40.81
2018-09-28T07:20:20.419Z,40.20
2018-09-28T07:22:49.564Z,39.86
2018-09-28T07:25:18.868Z,38.47
2018-09-28T07:27:48.204Z,38.22
2018-09-28T07:30:17.376Z,37.28
2018-09-28T07:32:46.713Z,38.16
2018-09-28T07:35:16.157Z,37.98
2018-09-28T07:37:45.039Z,38.44
2018-09-28T07:40:14.152Z,37.75
2018-09-28T07:42:43.376Z,36.50
2018-09-28T07:45:12.524Z,35.09
2018-09-28T07:47:41.749Z,33.29
2018-09-28T07:50:11.141Z,32.39
2018-09-28T07:52:40.444Z,31.64
2018-09-28T07:55:09.982Z,31.94
2018-09-28T07:57:39.338Z,32.45
2018-09-28T08:00:08.559Z,31.60
2018-09-28T08:02:38.007Z,30.31
2018-09-28T08:05:07.283Z,31.56
2018-09-28T08:07:36.919Z,31.72
2018-09-28T08:10:06.343Z,30.88
2018-09-28T08:12:35.674Z,32.09
2018-09-28T08:15:05.271Z,32.17
2018-09-28T08:17:34.755Z,31.62
2018-09-28T08:20:04.165Z,32.60
2018-09-28T08:22:33.188Z,30.15
2018-09-28T08:25:02.573Z,31.78
2018-09-28T08:27:31.727Z,31.66
2018-09-28T08:30:01.067Z,31.26
2018-09-28T08:32:30.327Z,31.36
2018-09-28T08:34:59.608Z,30.99
2018-09-28T08:37:29.127Z,31.33
2018-09-28T08:39:58.407Z,30.29
2018-09-28T08:42:27.760Z,29.92
2018-09-28T08:44:56.803Z,28.85
2018-09-28T08:47:26.157Z,29.54
2018-09-28T08:49:55.513Z,30.60
2018-09-28T08:52:24.962Z,30.16
2018-09-28T08:54:54.420Z,29.96
2018-09-28T08:57:23.806Z,29.21
2018-09-28T08:59:52.919Z,27.52
2018-09-28T09:02:22.253Z,29.06
2018-09-28T09:04:51.659Z,29.43
2018-09-28T09:07:20.880Z,29.82
2018-09-28T09:09:50.203Z,29.03
2018-09-28T09:12:19.391Z,29.64
2018-09-28T09:14:48.493Z,28.75
2018-09-28T09:17:17.802Z,27.82
2018-09-28T09:19:47.046Z,27.74
2018-09-28T09:22:16.404Z,27.39
2018-09-28T09:24:45.748Z,26.57
2018-09-28T09:27:15.037Z,26.01
2018-09-28T09:29:44.321Z,25.81
2018-09-28T09:32:13.695Z,27.94
2018-09-28T09:34:42.915Z,27.58
2018-09-28T09:37:12.268Z,27.30
2018-09-28T09:39:41.427Z,25.85
2018-09-28T09:42:10.828Z,27.84
2018-09-28T09:44:40.523Z,27.98
2018-09-28T09:47:10.054Z,27.09
2018-09-28T09:49:39.414Z,26.59
2018-09-28T09:52:08.768Z,26.78
2018-09-28T09:54:38.126Z,25.95
2018-09-28T09:57:07.288Z,26.97
2018-09-28T09:59:36.429Z,26.34
2018-09-28T10:02:10.648Z,25.56
2018-09-28T10:04:39.831Z,24.65
2018-09-28T10:07:09.359Z,24.35
2018-09-28T10:09:38.725Z,22.73
2018-09-28T10:12:08.014Z,21.14
2018-09-28T10:14:37.074Z,20.01
2018-09-28T10:17:06.517Z,18.41
2018-09-28T10:19:35.897Z,15.97
2018-09-28T10:22:05.011Z,15.05
2018-09-28T10:24:34.255Z,13.70
2018-09-28T10:27:03.452Z,11.81
2018-09-28T10:29:32.623Z,11.22
2018-09-28T10:32:01.743Z,11.98
2018-09-28T10:34:31.147Z,12.38
2018-09-28T10:37:00.731Z,11.81
2018-09-28T10:39:29.837Z,11.34
2018-09-28T10:41:58.935Z,11.46
2018-09-28T10:44:28.011Z,10.92
2018-09-28T10:46:57.127Z,10.04
2018-09-28T10:49:26.303Z,9.05
2018-09-28T10:51:55.450Z,8.50
2018-09-28T10:54:24.511Z,8.38
2018-09-28T10:56:53.611Z,7.48
2018-09-28T10:59:22.720Z,8.00
2018-09-28T11:01:51.768Z,7.46
2018-09-28T11:04:20.854Z,9.18
2018-09-28T11:06:49.989Z,8.75
2018-09-28T11:09:19.089Z,9.79
2018-09-28T11:11:48.288Z,9.48
2018-09-28T11:14:17.631Z,10.66
2018-09-28T11:16:46.668Z,9.76
2018-09-28T11:19:15.767Z,9.61
2018-09-28T11:21:44.962Z,9.60
2018-09-28T11:24:13.963Z,8.96
2018-09-28T11:26:43.015Z,8.96
2018-09-28T11:29:12.222Z,9.17
2018-09-28T11:31:41.254Z,8.91
2018-09-28T11:34:10.360Z,9.39
2018-09-28T11:36:39.429Z,8.78
2018-09-28T11:39:08.916Z,8.78
2018-09-28T11:41:38.008Z,8.57
2018-09-28T11:44:07.143Z,8.58
2018-09-28T11:46:36.197Z,8.74
2018-09-28T11:49:05.379Z,8.74
2018-09-28T11:51:34.533Z,9.24
2018-09-28T11:54:03.904Z,9.36
2018-09-28T11:56:33.000Z,8.28
2018-09-28T11:59:02.076Z,8.56
2018-09-28T12:01:31.143Z,9.20
2018-09-28T12:04:00.199Z,8.95
2018-09-28T12:06:29.413Z,8.89
2018-09-28T12:08:58.299Z,8.16
2018-09-28T12:11:27.592Z,8.92
2018-09-28T12:13:56.588Z,9.24
2018-09-28T12:16:25.554Z,9.43
2018-09-28T12:18:54.567Z,9.19
2018-09-28T12:21:23.585Z,8.33
2018-09-28T12:23:52.489Z,8.77
2018-09-28T12:26:21.548Z,8.15
2018-09-28T12:28:50.388Z,8.23
2018-09-28T12:31:19.324Z,9.18
2018-09-28T12:33:48.409Z,8.75
2018-09-28T12:36:17.351Z,8.76
2018-09-28T12:38:46.352Z,9.04
2018-09-28T12:41:15.294Z,9.03
2018-09-28T12:43:44.219Z,8.87
2018-09-28T12:46:13.235Z,9.09
2018-09-28T12:48:42.148Z,9.84
2018-09-28T12:51:10.946Z,9.01
2018-09-28T12:53:40.185Z,10.08
2018-09-28T12:56:09.212Z,9.89
2018-09-28T12:58:38.145Z,9.49
2018-09-28T13:01:07.203Z,9.37
2018-09-28T13:03:36.197Z,9.53
2018-09-28T13:06:06.071Z,9.33
2018-09-28T13:08:35.046Z,8.95
2018-09-28T13:11:04.373Z,9.99
2018-09-28T13:13:33.395Z,10.35
2018-09-28T13:16:02.403Z,11.03
2018-09-28T13:18:31.441Z,11.79
2018-09-28T13:21:00.539Z,12.88
2018-09-28T13:23:29.493Z,14.06
2018-09-28T13:25:58.503Z,14.08
2018-09-28T13:28:27.654Z,14.86
2018-09-28T13:30:56.547Z,15.39
2018-09-28T13:33:25.736Z,15.14
2018-09-28T13:35:54.655Z,15.78
2018-09-28T13:38:23.781Z,16.01
2018-09-28T13:40:52.667Z,16.62
2018-09-28T13:43:21.602Z,16.39
2018-09-28T13:45:50.863Z,16.19
2018-09-28T13:48:20.307Z,16.96
2018-09-28T13:50:49.634Z,16.70
2018-09-28T13:53:18.473Z,17.70
2018-09-28T13:55:47.463Z,17.81
2018-09-28T13:58:16.652Z,17.79
2018-09-28T14:00:46.014Z,17.21
2018-09-28T14:03:15.216Z,18.45
2018-09-28T14:05:44.459Z,18.79
2018-09-28T14:08:13.779Z,18.54
2018-09-28T14:10:42.772Z,18.31
2018-09-28T14:13:12.122Z,18.21
2018-09-28T14:15:41.359Z,19.11
2018-09-28T14:18:10.718Z,18.13
2018-09-28T14:20:40.084Z,19.49
2018-09-28T14:23:09.105Z,19.04
2018-09-28T14:25:38.487Z,18.83
2018-09-28T14:28:07.804Z,19.69
2018-09-28T14:30:37.127Z,20.54
2018-09-28T14:33:06.479Z,19.52
2018-09-28T14:35:36.891Z,19.64
2018-09-28T14:38:06.121Z,19.15
2018-09-28T14:40:35.642Z,19.63
2018-09-28T14:43:05.213Z,19.47
2018-09-28T14:45:34.330Z,19.15
2018-09-28T14:48:03.810Z,19.77
2018-09-28T14:50:33.024Z,20.48
2018-09-28T14:53:02.290Z,20.07
2018-09-28T14:55:31.696Z,19.77
2018-09-28T14:58:00.939Z,19.94
2018-09-28T15:00:30.157Z,20.30
2018-09-28T15:02:59.447Z,19.92
2018-09-28T15:05:28.578Z,20.01
2018-09-28T15:07:57.467Z,20.28
2018-09-28T15:10:26.918Z,21.19
2018-09-28T15:12:55.695Z,22.68
2018-09-28T15:15:24.891Z,24.16
2018-09-28T15:17:54.160Z,25.36
2018-09-28T15:20:23.455Z,24.51
2018-09-28T15:22:52.888Z,25.74
2018-09-28T15:25:22.145Z,26.25
2018-09-28T15:27:51.629Z,26.96
2018-09-28T15:30:20.956Z,26.99
2018-09-28T15:32:50.158Z,28.19
2018-09-28T15:35:20.371Z,28.02
2018-09-28T15:37:49.692Z,27.74
2018-09-28T15:40:18.970Z,28.28
2018-09-28T15:42:48.265Z,29.70
2018-09-28T15:45:17.364Z,28.54
2018-09-28T15:47:46.632Z,30.02
2018-09-28T15:50:15.824Z,30.18
2018-09-28T15:52:46.079Z,30.77
2018-09-28T15:55:15.455Z,31.41
2018-09-28T15:57:44.275Z,31.73
2018-09-28T16:00:13.261Z,32.06
2018-09-28T16:02:42.641Z,33.33
2018-09-28T16:05:12.132Z,32.36
2018-09-28T16:07:41.085Z,32.63
2018-09-28T16:10:10.318Z,32.86
2018-09-28T16:12:39.782Z,33.87
2018-09-28T16:15:08.858Z,33.68
2018-09-28T16:17:38.628Z,32.94
2018-09-28T16:20:08.063Z,33.25
2018-09-28T16:22:37.160Z,34.18
2018-09-28T16:25:06.546Z,33.94
2018-09-28T16:27:35.883Z,35.16
2018-09-28T16:30:05.256Z,34.21
2018-09-28T16:32:37.639Z,35.38
2018-09-28T16:35:06.986Z,35.71
2018-09-28T16:37:36.276Z,36.05
2018-09-28T16:40:05.491Z,37.07
2018-09-28T16:42:34.860Z,36.64
2018-09-28T16:45:04.144Z,33.71
2018-09-28T16:47:33.434Z,33.93
2018-09-28T16:50:02.445Z,36.23
2018-09-28T16:52:31.549Z,36.24
2018-09-28T16:55:00.821Z,35.96
2018-09-28T16:57:30.722Z,37.05
2018-09-28T16:59:59.735Z,35.43
2018-09-28T17:02:28.831Z,34.84
2018-09-28T17:04:58.351Z,35.38
2018-09-28T17:07:27.588Z,36.49
2018-09-28T17:09:56.658Z,34.93
2018-09-28T17:12:26.020Z,36.72
2018-09-28T17:14:55.224Z,36.75
2018-09-28T17:17:24.471Z,37.73
2018-09-28T17:19:53.755Z,38.21
2018-09-28T17:22:23.009Z,36.88
2018-09-28T17:24:52.957Z,37.26
2018-09-28T17:27:22.271Z,36.78
2018-09-28T17:29:54.316Z,36.18
2018-09-28T17:32:23.892Z,36.04
2018-09-28T17:34:53.269Z,37.05
2018-09-28T17:37:22.596Z,37.66
2018-09-28T17:39:51.679Z,38.24
2018-09-28T17:42:20.722Z,38.43
2018-09-28T17:44:49.951Z,38.04
2018-09-28T17:47:20.465Z,37.19
2018-09-28T17:49:49.603Z,37.54
2018-09-28T17:52:18.819Z,38.07
2018-09-28T17:54:49.172Z,37.57
2018-09-28T17:57:18.368Z,39.25
2018-09-28T17:59:47.838Z,37.03
2018-09-28T18:02:17.080Z,37.43
2018-09-28T18:04:47.899Z,37.88
2018-09-28T18:07:17.262Z,37.50
2018-09-28T18:09:46.438Z,36.70
2018-09-28T18:12:15.571Z,37.28
2018-09-28T18:14:45.107Z,37.44
2018-09-28T18:17:14.807Z,37.44
2018-09-28T18:19:44.048Z,38.51
2018-09-28T18:22:14.265Z,37.43
2018-09-28T18:24:44.407Z,37.34
2018-09-28T18:27:15.632Z,38.14
2018-09-28T18:29:45.000Z,37.81
2018-09-28T18:32:14.120Z,37.32
2018-09-28T18:34:43.255Z,37.40
2018-09-28T18:37:13.390Z,38.11
2018-09-28T18:39:42.610Z,37.14
2018-09-28T18:42:12.249Z,35.25
2018-09-28T18:44:41.561Z,35.01
2018-09-28T18:47:10.915Z,36.46
2018-09-28T18:49:40.556Z,35.28
2018-09-28T18:52:09.910Z,36.87
2018-09-28T18:54:38.890Z,36.69
2018-09-28T18:57:08.441Z,37.07
2018-09-28T18:59:37.897Z,38.29
2018-09-28T19:02:07.033Z,36.97
2018-09-28T19:04:36.810Z,35.58
2018-09-28T19:07:06.327Z,38.59
2018-09-28T19:09:36.421Z,38.47
2018-09-28T19:12:05.958Z,37.75
2018-09-28T19:14:34.953Z,37.44
2018-09-28T19:17:04.397Z,34.95
2018-09-28T19:19:33.874Z,34.36
2018-09-28T19:22:02.995Z,34.38
2018-09-28T19:24:32.398Z,34.10
2018-09-28T19:27:01.676Z,35.13
2018-09-28T19:29:31.021Z,34.09
2018-09-28T19:32:00.018Z,35.35
2018-09-28T19:34:29.376Z,33.63
2018-09-28T19:36:59.122Z,34.15
2018-09-28T19:39:28.498Z,33.04
2018-09-28T19:41:58.657Z,35.87
2018-09-28T19:44:27.934Z,37.01
2018-09-28T19:46:56.911Z,37.00
2018-09-28T19:49:26.883Z,38.87
2018-09-28T19:51:57.559Z,38.93
2018-09-28T19:54:27.723Z,38.00
2018-09-28T19:56:57.159Z,38.29
2018-09-28T19:59:26.604Z,38.88
2018-09-28T20:01:56.048Z,37.88
2018-09-28T20:04:25.407Z,39.30
2018-09-28T20:06:58.105Z,39.12
2018-09-28T20:09:27.963Z,39.03
2018-09-28T20:11:57.302Z,38.44
2018-09-28T20:14:26.679Z,40.15
2018-09-28T20:16:56.240Z,39.72
2018-09-28T20:19:25.461Z,39.17
2018-09-28T20:21:54.835Z,37.75
2018-09-28T20:24:24.023Z,39.48
2018-09-28T20:26:53.135Z,39.34
2018-09-28T20:29:22.941Z,40.74
2018-09-28T20:31:52.323Z,41.31
2018-09-28T20:34:21.836Z,38.72
2018-09-28T20:36:51.177Z,39.61
2018-09-28T20:39:20.261Z,39.24
2018-09-28T20:41:49.828Z,38.52
2018-09-28T20:44:18.788Z,39.46
2018-09-28T20:46:47.719Z,40.93
2018-09-28T20:49:17.080Z,40.75
2018-09-28T20:51:46.408Z,37.83
2018-09-28T20:54:15.535Z,37.77
2018-09-28T20:56:44.823Z,37.37
2018-09-28T20:59:13.946Z,37.32
2018-09-28T21:01:43.353Z,39.35
2018-09-28T21:04:12.507Z,40.08
2018-09-28T21:06:41.678Z,40.87
2018-09-28T21:09:11.499Z,40.42
2018-09-28T21:11:40.851Z,39.69
2018-09-28T21:14:10.020Z,41.99
2018-09-28T21:16:39.088Z,41.17
2018-09-28T21:19:08.300Z,41.79
2018-09-28T21:21:37.603Z,39.35
2018-09-28T21:24:06.648Z,38.79
2018-09-28T21:26:35.763Z,40.20
2018-09-28T21:29:05.222Z,39.47
2018-09-28T21:31:34.541Z,38.14
2018-09-28T21:34:03.788Z,39.09
2018-09-28T21:36:32.854Z,37.16
2018-09-28T21:39:02.032Z,37.60
2018-09-28T21:41:31.429Z,40.46
2018-09-28T21:44:00.904Z,40.92
2018-09-28T21:46:30.296Z,40.92
2018-09-28T21:48:59.365Z,41.14
2018-09-28T21:51:28.823Z,40.86
2018-09-28T21:53:58.227Z,42.79
2018-09-28T21:56:27.235Z,42.41
2018-09-28T21:58:56.625Z,41.01
2018-09-28T22:01:25.887Z,40.67
2018-09-28T22:03:55.183Z,41.22
2018-09-28T22:06:24.375Z,40.07
2018-09-28T22:08:53.558Z,41.37
2018-09-28T22:11:22.911Z,42.68
2018-09-28T22:13:52.472Z,40.41
2018-09-28T22:16:21.351Z,40.05
2018-09-28T22:18:50.596Z,39.67
2018-09-28T22:21:19.833Z,39.43
2018-09-28T22:23:49.211Z,39.49
2018-09-28T22:26:18.579Z,40.94
2018-09-28T22:28:47.848Z,40.14
2018-09-28T22:31:17.068Z,40.39
2018-09-28T22:33:46.051Z,40.83
2018-09-28T22:36:15.101Z,39.84
2018-09-28T22:38:44.179Z,40.33
2018-09-28T22:41:13.423Z,40.67
2018-09-28T22:43:42.797Z,40.27
2018-09-28T22:46:11.784Z,39.04
2018-09-28T22:48:41.172Z,40.11
2018-09-28T22:51:10.076Z,41.18
2018-09-28T22:53:39.223Z,41.87
2018-09-28T22:56:08.546Z,42.21
2018-09-28T22:58:37.668Z,41.17
2018-09-28T23:01:07.254Z,41.63
2018-09-28T23:03:36.399Z,41.60
2018-09-28T23:06:05.577Z,41.61
2018-09-28T23:08:34.861Z,43.00
2018-09-28T23:11:03.667Z,42.40
2018-09-28T23:13:32.555Z,43.49
2018-09-28T23:16:01.921Z,43.93
2018-09-28T23:18:31.175Z,44.83
2018-09-28T23:21:00.385Z,43.32
2018-09-28T23:23:29.303Z,43.61
2018-09-28T23:25:58.346Z,45.25
2018-09-28T23:28:27.723Z,45.39
2018-09-28T23:30:56.958Z,45.06
2018-09-28T23:33:25.835Z,43.61
2018-09-28T23:35:55.057Z,44.60
2018-09-28T23:38:24.401Z,44.48
2018-09-28T23:40:53.647Z,44.41
2018-09-28T23:43:22.882Z,45.01
2018-09-28T23:45:52.290Z,45.47
2018-09-28T23:48:21.239Z,44.68
2018-09-28T23:50:50.480Z,45.78
2018-09-28T23:55:55.758Z,45.18
2018-09-28T23:58:24.847Z,45.40
